LXJ651 MMSL-KNEW
Flight info
| Callsign | LXJ651 |
|---|---|
| Flight time | 2h 22m |
| Altitude | 45000 |
| Route | UKUXA DCT TRC UJ20 NLD J22 HYNES DCT LLA OLEDD4 |
| Aircraft | GLF6/M-SBDE2E3FGHIJ4J5M1RWXY/LB1D1 |
Departure
| Time | 2026-04-27 00:00 |
|---|---|
| Airport | Cabo San Lucas International Airport (MMSL) |
Arrival
| Time | 2026-04-27 02:22 |
|---|---|
| Airport | Lakefront Airport (KNEW) |
| Time | Latitude | Longitude | Altitude | Speed | Heading |
|---|---|---|---|---|---|
| 2026-04-26 23:52 | 22.94771 | -109.93429 | 638 ft | 0 kts | 330° |
| 2026-04-26 23:52 | 22.94770 | -109.93430 | 639 ft | 0 kts | 266° |
| 2026-04-26 23:52 | 22.94769 | -109.93428 | 638 ft | 0 kts | 137° |
| 2026-04-26 23:56 | 22.94769 | -109.93427 | 638 ft | 0 kts | 140° |
| 2026-04-26 23:56 | 22.94768 | -109.93427 | 638 ft | 1 kts | 141° |
| 2026-04-26 23:56 | 22.94745 | -109.93448 | 638 ft | 8 kts | 229° |
| 2026-04-26 23:57 | 22.94723 | -109.93499 | 639 ft | 7 kts | 262° |
| 2026-04-26 23:57 | 22.94718 | -109.93550 | 641 ft | 6 kts | 263° |
| 2026-04-26 23:57 | 22.94677 | -109.93540 | 640 ft | 14 kts | 129° |
| 2026-04-26 23:57 | 22.94592 | -109.93381 | 632 ft | 33 kts | 120° |
| 2026-04-26 23:58 | 22.94472 | -109.93157 | 628 ft | 36 kts | 120° |
| 2026-04-26 23:58 | 22.94416 | -109.92985 | 616 ft | 15 kts | 94° |
| 2026-04-26 23:58 | 22.94375 | -109.92962 | 614 ft | 7 kts | 275° |
| 2026-04-26 23:58 | 22.94390 | -109.92997 | 619 ft | 0 kts | 299° |
| 2026-04-26 23:59 | 22.94473 | -109.93157 | 628 ft | 68 kts | 300° |
| 2026-04-26 23:59 | 22.94864 | -109.93902 | 674 ft | 154 kts | 299° |
| 2026-04-27 00:00 | 22.95465 | -109.95060 | 1421 ft | 196 kts | 298° |
| 2026-04-27 00:00 | 22.96106 | -109.96554 | 2487 ft | 242 kts | 287° |
| 2026-04-27 00:00 | 22.96234 | -109.98440 | 3515 ft | 256 kts | 262° |
| 2026-04-27 00:00 | 22.95504 | -110.00213 | 4540 ft | 268 kts | 233° |
| 2026-04-27 00:01 | 22.94026 | -110.01443 | 5585 ft | 271 kts | 204° |
| 2026-04-27 00:01 | 22.92185 | -110.01775 | 6644 ft | 273 kts | 176° |
| 2026-04-27 00:01 | 22.90379 | -110.01128 | 7676 ft | 279 kts | 149° |
| 2026-04-27 00:01 | 22.89021 | -109.99625 | 8749 ft | 285 kts | 123° |
| 2026-04-27 00:02 | 22.88410 | -109.97555 | 9853 ft | 295 kts | 97° |
| 2026-04-27 00:02 | 22.88684 | -109.95326 | 10881 ft | 307 kts | 72° |
| 2026-04-27 00:02 | 22.89618 | -109.93198 | 11957 ft | 323 kts | 63° |
| 2026-04-27 00:02 | 22.90715 | -109.90995 | 13067 ft | 350 kts | 62° |
| 2026-04-27 00:03 | 22.91929 | -109.88581 | 14175 ft | 379 kts | 62° |
| 2026-04-27 00:03 | 22.93212 | -109.85956 | 15228 ft | 409 kts | 62° |
| 2026-04-27 00:03 | 22.94555 | -109.83165 | 16311 ft | 424 kts | 63° |
| 2026-04-27 00:03 | 22.95948 | -109.80298 | 17531 ft | 432 kts | 62° |
| 2026-04-27 00:04 | 22.97375 | -109.77387 | 18634 ft | 442 kts | 62° |
| 2026-04-27 00:04 | 22.98826 | -109.74404 | 19542 ft | 451 kts | 62° |
| 2026-04-27 00:04 | 23.00297 | -109.71358 | 20494 ft | 461 kts | 62° |
| 2026-04-27 00:04 | 23.01785 | -109.68293 | 21407 ft | 469 kts | 62° |
| 2026-04-27 00:05 | 23.03325 | -109.65132 | 22319 ft | 478 kts | 62° |
| 2026-04-27 00:05 | 23.04887 | -109.61906 | 23201 ft | 487 kts | 62° |
| 2026-04-27 00:05 | 23.06478 | -109.58618 | 23990 ft | 496 kts | 61° |
| 2026-04-27 00:05 | 23.08093 | -109.55285 | 24804 ft | 502 kts | 61° |
| 2026-04-27 00:06 | 23.09726 | -109.51909 | 25592 ft | 508 kts | 61° |
| 2026-04-27 00:06 | 23.11381 | -109.48487 | 26404 ft | 515 kts | 61° |
| 2026-04-27 00:06 | 23.13057 | -109.45017 | 27208 ft | 522 kts | 61° |
| 2026-04-27 00:06 | 23.14730 | -109.41551 | 28002 ft | 529 kts | 61° |
| 2026-04-27 00:07 | 23.16450 | -109.37990 | 28801 ft | 536 kts | 60° |
| 2026-04-27 00:07 | 23.18190 | -109.34379 | 29588 ft | 543 kts | 60° |
| 2026-04-27 00:07 | 23.19953 | -109.30718 | 30300 ft | 550 kts | 60° |
| 2026-04-27 00:07 | 23.21737 | -109.27016 | 31004 ft | 555 kts | 61° |
| 2026-04-27 00:08 | 23.23530 | -109.23286 | 31782 ft | 559 kts | 61° |
| 2026-04-27 00:08 | 23.25332 | -109.19539 | 32729 ft | 559 kts | 61° |
| 2026-04-27 00:08 | 23.27136 | -109.15781 | 33538 ft | 563 kts | 61° |
| 2026-04-27 00:08 | 23.28923 | -109.12060 | 34425 ft | 563 kts | 61° |
| 2026-04-27 00:09 | 23.30735 | -109.08282 | 35241 ft | 564 kts | 60° |
| 2026-04-27 00:09 | 23.32551 | -109.04491 | 36039 ft | 566 kts | 60° |
| 2026-04-27 00:09 | 23.34370 | -109.00694 | 36865 ft | 567 kts | 60° |
| 2026-04-27 00:09 | 23.36194 | -108.96882 | 37693 ft | 568 kts | 60° |
| 2026-04-27 00:10 | 23.38021 | -108.93059 | 38533 ft | 570 kts | 59° |
| 2026-04-27 00:10 | 23.39847 | -108.89238 | 39322 ft | 568 kts | 60° |
| 2026-04-27 00:10 | 23.41625 | -108.85425 | 40305 ft | 562 kts | 63° |
| 2026-04-27 00:10 | 23.43239 | -108.81569 | 41311 ft | 556 kts | 64° |
| 2026-04-27 00:11 | 23.44794 | -108.77798 | 42311 ft | 550 kts | 64° |
| 2026-04-27 00:11 | 23.46373 | -108.74027 | 43300 ft | 544 kts | 64° |
| 2026-04-27 00:11 | 23.47946 | -108.70301 | 44245 ft | 539 kts | 64° |
| 2026-04-27 00:11 | 23.49495 | -108.66591 | 44870 ft | 539 kts | 64° |
| 2026-04-27 00:12 | 23.52606 | -108.59109 | 44876 ft | 545 kts | 64° |
| 2026-04-27 00:12 | 23.55758 | -108.51549 | 44881 ft | 550 kts | 64° |
| 2026-04-27 00:13 | 23.58894 | -108.43998 | 44883 ft | 551 kts | 64° |
| 2026-04-27 00:13 | 23.62057 | -108.36381 | 44886 ft | 552 kts | 64° |
| 2026-04-27 00:14 | 23.65218 | -108.28747 | 44887 ft | 553 kts | 64° |
| 2026-04-27 00:14 | 23.68383 | -108.21098 | 44889 ft | 553 kts | 64° |
| 2026-04-27 00:15 | 23.71523 | -108.13490 | 44891 ft | 554 kts | 64° |
| 2026-04-27 00:15 | 23.74683 | -108.05825 | 44889 ft | 554 kts | 64° |
| 2026-04-27 00:16 | 23.77837 | -107.98160 | 44888 ft | 553 kts | 64° |
| 2026-04-27 00:16 | 23.80985 | -107.90498 | 44883 ft | 553 kts | 64° |
| 2026-04-27 00:17 | 23.84107 | -107.82886 | 44884 ft | 553 kts | 64° |
| 2026-04-27 00:17 | 23.87244 | -107.75225 | 44877 ft | 552 kts | 64° |
| 2026-04-27 00:18 | 23.90377 | -107.67561 | 44881 ft | 552 kts | 64° |
| 2026-04-27 00:18 | 23.93503 | -107.59898 | 44875 ft | 552 kts | 64° |
| 2026-04-27 00:19 | 23.96604 | -107.52286 | 44879 ft | 552 kts | 64° |
| 2026-04-27 00:19 | 23.99721 | -107.44622 | 44875 ft | 552 kts | 64° |
| 2026-04-27 00:20 | 24.02834 | -107.36956 | 44877 ft | 552 kts | 64° |
| 2026-04-27 00:20 | 24.05943 | -107.29285 | 44878 ft | 551 kts | 64° |
| 2026-04-27 00:21 | 24.09048 | -107.21608 | 44883 ft | 551 kts | 64° |
| 2026-04-27 00:21 | 24.12128 | -107.13983 | 44882 ft | 551 kts | 64° |
| 2026-04-27 00:22 | 24.15223 | -107.06308 | 44888 ft | 551 kts | 65° |
| 2026-04-27 00:22 | 24.18314 | -106.98628 | 44883 ft | 551 kts | 65° |
| 2026-04-27 00:23 | 24.21400 | -106.90946 | 44884 ft | 551 kts | 65° |
| 2026-04-27 00:23 | 24.24461 | -106.83317 | 44890 ft | 551 kts | 65° |
| 2026-04-27 00:24 | 24.27537 | -106.75633 | 44891 ft | 550 kts | 65° |
| 2026-04-27 00:24 | 24.30608 | -106.67953 | 44899 ft | 550 kts | 65° |
| 2026-04-27 00:25 | 24.33673 | -106.60268 | 44899 ft | 550 kts | 65° |
| 2026-04-27 00:25 | 24.36716 | -106.52634 | 44912 ft | 551 kts | 65° |
| 2026-04-27 00:26 | 24.39777 | -106.44932 | 44918 ft | 551 kts | 65° |
| 2026-04-27 00:26 | 24.42837 | -106.37226 | 44938 ft | 551 kts | 65° |
| 2026-04-27 00:27 | 24.45893 | -106.29513 | 44944 ft | 551 kts | 65° |
| 2026-04-27 00:27 | 24.48924 | -106.21852 | 44955 ft | 551 kts | 65° |
| 2026-04-27 00:28 | 24.51976 | -106.14118 | 44954 ft | 553 kts | 65° |
| 2026-04-27 00:28 | 24.55028 | -106.06377 | 44967 ft | 552 kts | 65° |
| 2026-04-27 00:29 | 24.58066 | -105.98658 | 44984 ft | 549 kts | 65° |
| 2026-04-27 00:29 | 24.61065 | -105.91018 | 44978 ft | 549 kts | 65° |
| 2026-04-27 00:30 | 24.64092 | -105.83302 | 44968 ft | 550 kts | 65° |
| 2026-04-27 00:30 | 24.67123 | -105.75552 | 44977 ft | 553 kts | 65° |
| 2026-04-27 00:31 | 24.70161 | -105.67780 | 44968 ft | 553 kts | 65° |
| 2026-04-27 00:31 | 24.73172 | -105.60053 | 44954 ft | 553 kts | 65° |
| 2026-04-27 00:32 | 24.76203 | -105.52272 | 44941 ft | 553 kts | 65° |
| 2026-04-27 00:32 | 24.79226 | -105.44487 | 44925 ft | 554 kts | 65° |
| 2026-04-27 00:33 | 24.82250 | -105.36694 | 44909 ft | 554 kts | 65° |
| 2026-04-27 00:33 | 24.85250 | -105.28941 | 44894 ft | 554 kts | 65° |
| 2026-04-27 00:34 | 24.88271 | -105.21127 | 44880 ft | 555 kts | 65° |
| 2026-04-27 00:34 | 24.91283 | -105.13314 | 44861 ft | 553 kts | 65° |
| 2026-04-27 00:35 | 24.94286 | -105.05516 | 44853 ft | 553 kts | 65° |
| 2026-04-27 00:35 | 24.97261 | -104.97774 | 44841 ft | 552 kts | 65° |
| 2026-04-27 00:36 | 25.00252 | -104.89979 | 44822 ft | 552 kts | 65° |
| 2026-04-27 00:36 | 25.03236 | -104.82181 | 44802 ft | 551 kts | 65° |
| 2026-04-27 00:37 | 25.06193 | -104.74448 | 44785 ft | 551 kts | 65° |
| 2026-04-27 00:37 | 25.09160 | -104.66671 | 44760 ft | 549 kts | 65° |
| 2026-04-27 00:38 | 25.12118 | -104.58901 | 44746 ft | 548 kts | 65° |
| 2026-04-27 00:38 | 25.15064 | -104.51151 | 44735 ft | 547 kts | 65° |
| 2026-04-27 00:39 | 25.18004 | -104.43398 | 44721 ft | 547 kts | 65° |
| 2026-04-27 00:39 | 25.20920 | -104.35700 | 44713 ft | 547 kts | 65° |
| 2026-04-27 00:40 | 25.23848 | -104.27953 | 44712 ft | 546 kts | 65° |
| 2026-04-27 00:40 | 25.26767 | -104.20216 | 44719 ft | 545 kts | 65° |
| 2026-04-27 00:41 | 25.29652 | -104.12552 | 44719 ft | 543 kts | 66° |
| 2026-04-27 00:41 | 25.32545 | -104.04856 | 44723 ft | 541 kts | 66° |
| 2026-04-27 00:42 | 25.35426 | -103.97176 | 44731 ft | 541 kts | 66° |
| 2026-04-27 00:42 | 25.38305 | -103.89489 | 44733 ft | 541 kts | 66° |
| 2026-04-27 00:43 | 25.41164 | -103.81840 | 44737 ft | 542 kts | 66° |
| 2026-04-27 00:43 | 25.44034 | -103.74147 | 44763 ft | 541 kts | 66° |
| 2026-04-27 00:44 | 25.46902 | -103.66447 | 44808 ft | 542 kts | 66° |
| 2026-04-27 00:44 | 25.49774 | -103.58718 | 44851 ft | 545 kts | 66° |
| 2026-04-27 00:45 | 25.52640 | -103.50991 | 44894 ft | 548 kts | 66° |
| 2026-04-27 00:45 | 25.55579 | -103.43194 | 44891 ft | 548 kts | 62° |
| 2026-04-27 00:46 | 25.59779 | -103.36226 | 44901 ft | 543 kts | 47° |
| 2026-04-27 00:46 | 25.64562 | -103.29691 | 44873 ft | 547 kts | 47° |
| 2026-04-27 00:47 | 25.69328 | -103.23178 | 44827 ft | 548 kts | 47° |
| 2026-04-27 00:47 | 25.74122 | -103.16608 | 44774 ft | 548 kts | 47° |
| 2026-04-27 00:48 | 25.78916 | -103.10034 | 44721 ft | 548 kts | 47° |
| 2026-04-27 00:48 | 25.83710 | -103.03447 | 44724 ft | 549 kts | 47° |
| 2026-04-27 00:49 | 25.88475 | -102.96895 | 44722 ft | 549 kts | 47° |
| 2026-04-27 00:49 | 25.93272 | -102.90290 | 44732 ft | 550 kts | 47° |
| 2026-04-27 00:50 | 26.00471 | -102.80357 | 44738 ft | 550 kts | 47° |
| 2026-04-27 00:51 | 26.05234 | -102.73775 | 44739 ft | 550 kts | 47° |
| 2026-04-27 00:51 | 26.10019 | -102.67152 | 44737 ft | 549 kts | 47° |
| 2026-04-27 00:52 | 26.14788 | -102.60542 | 44744 ft | 547 kts | 47° |
| 2026-04-27 00:52 | 26.19553 | -102.53926 | 44746 ft | 548 kts | 47° |
| 2026-04-27 00:53 | 26.24284 | -102.47352 | 44749 ft | 548 kts | 47° |
| 2026-04-27 00:53 | 26.29048 | -102.40717 | 44753 ft | 549 kts | 47° |
| 2026-04-27 00:54 | 26.33814 | -102.34077 | 44758 ft | 548 kts | 47° |
| 2026-04-27 00:54 | 26.38572 | -102.27430 | 44764 ft | 548 kts | 47° |
| 2026-04-27 00:55 | 26.43291 | -102.20833 | 44767 ft | 548 kts | 48° |
| 2026-04-27 00:55 | 26.48035 | -102.14188 | 44764 ft | 547 kts | 48° |
| 2026-04-27 00:56 | 26.52771 | -102.07549 | 44763 ft | 546 kts | 48° |
| 2026-04-27 00:56 | 26.57500 | -102.00907 | 44764 ft | 546 kts | 48° |
| 2026-04-27 00:57 | 26.62193 | -101.94306 | 44778 ft | 546 kts | 48° |
| 2026-04-27 00:57 | 26.66909 | -101.87663 | 44771 ft | 544 kts | 48° |
| 2026-04-27 00:58 | 26.71605 | -101.81038 | 44766 ft | 543 kts | 48° |
| 2026-04-27 00:58 | 26.76264 | -101.74458 | 44766 ft | 542 kts | 48° |
| 2026-04-27 00:59 | 26.80946 | -101.67832 | 44771 ft | 543 kts | 48° |
| 2026-04-27 00:59 | 26.85631 | -101.61194 | 44769 ft | 544 kts | 48° |
| 2026-04-27 01:00 | 26.90321 | -101.54538 | 44774 ft | 545 kts | 48° |
| 2026-04-27 01:00 | 26.94701 | -101.47655 | 44762 ft | 551 kts | 58° |
| 2026-04-27 01:01 | 26.97507 | -101.39630 | 44767 ft | 557 kts | 72° |
| 2026-04-27 01:01 | 26.99682 | -101.31283 | 44768 ft | 559 kts | 72° |
| 2026-04-27 01:02 | 27.01855 | -101.22908 | 44769 ft | 560 kts | 72° |
| 2026-04-27 01:02 | 27.04018 | -101.14573 | 44773 ft | 561 kts | 72° |
| 2026-04-27 01:03 | 27.06192 | -101.06163 | 44763 ft | 561 kts | 72° |
| 2026-04-27 01:03 | 27.08366 | -100.97734 | 44774 ft | 566 kts | 72° |
| 2026-04-27 01:04 | 27.10563 | -100.89186 | 44767 ft | 571 kts | 72° |
| 2026-04-27 01:04 | 27.12747 | -100.80672 | 44769 ft | 571 kts | 72° |
| 2026-04-27 01:05 | 27.14938 | -100.72104 | 44768 ft | 571 kts | 72° |
| 2026-04-27 01:05 | 27.17124 | -100.63545 | 44766 ft | 570 kts | 72° |
| 2026-04-27 01:06 | 27.19303 | -100.54990 | 44767 ft | 570 kts | 72° |
| 2026-04-27 01:06 | 27.21461 | -100.46489 | 44763 ft | 570 kts | 72° |
| 2026-04-27 01:07 | 27.23631 | -100.37923 | 44765 ft | 570 kts | 72° |
| 2026-04-27 01:07 | 27.25795 | -100.29352 | 44763 ft | 570 kts | 72° |
| 2026-04-27 01:08 | 27.27955 | -100.20784 | 44758 ft | 569 kts | 72° |
| 2026-04-27 01:08 | 27.30105 | -100.12227 | 44761 ft | 568 kts | 72° |
| 2026-04-27 01:09 | 27.32231 | -100.03747 | 44755 ft | 567 kts | 72° |
| 2026-04-27 01:09 | 27.34360 | -99.95214 | 44754 ft | 566 kts | 72° |
| 2026-04-27 01:10 | 27.36475 | -99.86690 | 44761 ft | 566 kts | 72° |
| 2026-04-27 01:10 | 27.38588 | -99.78169 | 44771 ft | 565 kts | 72° |
| 2026-04-27 01:11 | 27.40692 | -99.69651 | 44778 ft | 565 kts | 72° |
| 2026-04-27 01:11 | 27.42776 | -99.61195 | 44779 ft | 564 kts | 72° |
| 2026-04-27 01:12 | 27.44952 | -99.52720 | 44778 ft | 563 kts | 70° |
| 2026-04-27 01:12 | 27.47204 | -99.44272 | 44792 ft | 564 kts | 71° |
| 2026-04-27 01:13 | 27.49228 | -99.35734 | 44787 ft | 565 kts | 74° |
| 2026-04-27 01:13 | 27.51115 | -99.27199 | 44785 ft | 566 kts | 73° |
| 2026-04-27 01:14 | 27.53031 | -99.18604 | 44783 ft | 566 kts | 74° |
| 2026-04-27 01:14 | 27.54929 | -99.09998 | 44779 ft | 566 kts | 73° |
| 2026-04-27 01:15 | 27.56828 | -99.01397 | 44782 ft | 565 kts | 74° |
| 2026-04-27 01:15 | 27.58715 | -98.92804 | 44786 ft | 564 kts | 74° |
| 2026-04-27 01:16 | 27.60597 | -98.84219 | 44792 ft | 564 kts | 74° |
| 2026-04-27 01:16 | 27.62456 | -98.75700 | 44790 ft | 563 kts | 74° |
| 2026-04-27 01:17 | 27.64324 | -98.67125 | 44797 ft | 563 kts | 74° |
| 2026-04-27 01:17 | 27.66187 | -98.58542 | 44794 ft | 564 kts | 74° |
| 2026-04-27 01:18 | 27.68045 | -98.49954 | 44797 ft | 564 kts | 74° |
| 2026-04-27 01:18 | 27.69887 | -98.41410 | 44804 ft | 564 kts | 74° |
| 2026-04-27 01:19 | 27.71737 | -98.32803 | 44807 ft | 565 kts | 74° |
| 2026-04-27 01:19 | 27.73583 | -98.24190 | 44815 ft | 565 kts | 74° |
| 2026-04-27 01:20 | 27.75421 | -98.15578 | 44818 ft | 564 kts | 74° |
| 2026-04-27 01:20 | 27.77242 | -98.07027 | 44817 ft | 564 kts | 74° |
| 2026-04-27 01:21 | 27.79067 | -97.98428 | 44819 ft | 563 kts | 74° |
| 2026-04-27 01:21 | 27.80885 | -97.89831 | 44813 ft | 563 kts | 74° |
| 2026-04-27 01:22 | 27.82698 | -97.81234 | 44826 ft | 563 kts | 74° |
| 2026-04-27 01:22 | 27.84507 | -97.72628 | 44832 ft | 563 kts | 74° |
| 2026-04-27 01:23 | 27.86298 | -97.64073 | 44834 ft | 564 kts | 74° |
| 2026-04-27 01:23 | 27.88098 | -97.55452 | 44835 ft | 564 kts | 74° |
| 2026-04-27 01:24 | 27.90312 | -97.46991 | 44828 ft | 558 kts | 63° |
| 2026-04-27 01:24 | 27.94218 | -97.39532 | 44828 ft | 547 kts | 47° |
| 2026-04-27 01:25 | 27.99119 | -97.33071 | 44835 ft | 545 kts | 44° |
| 2026-04-27 01:25 | 28.04077 | -97.26566 | 44845 ft | 546 kts | 44° |
| 2026-04-27 01:26 | 28.09048 | -97.20053 | 44842 ft | 547 kts | 44° |
| 2026-04-27 01:26 | 28.14016 | -97.13523 | 44841 ft | 547 kts | 44° |
| 2026-04-27 01:27 | 28.18955 | -97.07026 | 44845 ft | 548 kts | 44° |
| 2026-04-27 01:27 | 28.23921 | -97.00480 | 44842 ft | 548 kts | 44° |
| 2026-04-27 01:28 | 28.28888 | -96.93924 | 44840 ft | 548 kts | 44° |
| 2026-04-27 01:28 | 28.33853 | -96.87361 | 44851 ft | 548 kts | 44° |
| 2026-04-27 01:29 | 28.38362 | -96.80328 | 44844 ft | 558 kts | 56° |
| 2026-04-27 01:29 | 28.41318 | -96.72180 | 44847 ft | 565 kts | 67° |
| 2026-04-27 01:30 | 28.43912 | -96.63743 | 44846 ft | 566 kts | 67° |
| 2026-04-27 01:30 | 28.46496 | -96.55278 | 44854 ft | 567 kts | 67° |
| 2026-04-27 01:31 | 28.49085 | -96.46805 | 44854 ft | 567 kts | 67° |
| 2026-04-27 01:31 | 28.51647 | -96.38386 | 44857 ft | 567 kts | 67° |
| 2026-04-27 01:32 | 28.54223 | -96.29904 | 44859 ft | 567 kts | 67° |
| 2026-04-27 01:32 | 28.56791 | -96.21425 | 44863 ft | 567 kts | 67° |
| 2026-04-27 01:33 | 28.59355 | -96.12939 | 44862 ft | 567 kts | 67° |
| 2026-04-27 01:33 | 28.61912 | -96.04456 | 44865 ft | 567 kts | 67° |
| 2026-04-27 01:34 | 28.64450 | -95.96013 | 44867 ft | 567 kts | 67° |
| 2026-04-27 01:34 | 28.66999 | -95.87512 | 44862 ft | 568 kts | 67° |
| 2026-04-27 01:35 | 28.69544 | -95.79001 | 44860 ft | 568 kts | 67° |
| 2026-04-27 01:35 | 28.72084 | -95.70484 | 44863 ft | 568 kts | 67° |
| 2026-04-27 01:36 | 28.74602 | -95.62023 | 44866 ft | 568 kts | 67° |
| 2026-04-27 01:36 | 28.77131 | -95.53503 | 44876 ft | 568 kts | 67° |
| 2026-04-27 01:37 | 28.79655 | -95.44974 | 44877 ft | 568 kts | 67° |
| 2026-04-27 01:37 | 28.82172 | -95.36447 | 44878 ft | 568 kts | 67° |
| 2026-04-27 01:38 | 28.84687 | -95.27907 | 44877 ft | 568 kts | 67° |
| 2026-04-27 01:38 | 28.87180 | -95.19417 | 44879 ft | 569 kts | 67° |
| 2026-04-27 01:39 | 28.89689 | -95.10852 | 44879 ft | 569 kts | 67° |
| 2026-04-27 01:39 | 28.92193 | -95.02281 | 44879 ft | 570 kts | 67° |
| 2026-04-27 01:40 | 28.94696 | -94.93691 | 44884 ft | 570 kts | 67° |
| 2026-04-27 01:40 | 28.97177 | -94.85153 | 44886 ft | 570 kts | 67° |
| 2026-04-27 01:41 | 28.99670 | -94.76549 | 44890 ft | 570 kts | 67° |
| 2026-04-27 01:41 | 29.02156 | -94.67947 | 44889 ft | 570 kts | 67° |
| 2026-04-27 01:42 | 29.04637 | -94.59340 | 44891 ft | 570 kts | 67° |
| 2026-04-27 01:42 | 29.07095 | -94.50790 | 44894 ft | 570 kts | 67° |
| 2026-04-27 01:43 | 29.09563 | -94.42184 | 44894 ft | 570 kts | 67° |
| 2026-04-27 01:43 | 29.12026 | -94.33570 | 44899 ft | 570 kts | 67° |
| 2026-04-27 01:44 | 29.14482 | -94.24958 | 44901 ft | 569 kts | 67° |
| 2026-04-27 01:44 | 29.16932 | -94.16343 | 44899 ft | 569 kts | 67° |
| 2026-04-27 01:45 | 29.19359 | -94.07786 | 44898 ft | 569 kts | 67° |
| 2026-04-27 01:45 | 29.21796 | -93.99170 | 44902 ft | 569 kts | 67° |
| 2026-04-27 01:46 | 29.24228 | -93.90549 | 44907 ft | 569 kts | 67° |
| 2026-04-27 01:46 | 29.26653 | -93.81929 | 44912 ft | 569 kts | 67° |
| 2026-04-27 01:47 | 29.29072 | -93.73304 | 44912 ft | 569 kts | 67° |
| 2026-04-27 01:47 | 29.31467 | -93.64739 | 44914 ft | 568 kts | 67° |
| 2026-04-27 01:48 | 29.33875 | -93.56107 | 44918 ft | 568 kts | 67° |
| 2026-04-27 01:48 | 29.36276 | -93.47482 | 44916 ft | 568 kts | 67° |
| 2026-04-27 01:49 | 29.38669 | -93.38855 | 44919 ft | 568 kts | 67° |
| 2026-04-27 01:49 | 29.41057 | -93.30222 | 44923 ft | 568 kts | 67° |
| 2026-04-27 01:50 | 29.43422 | -93.21649 | 44923 ft | 568 kts | 67° |
| 2026-04-27 01:50 | 29.45797 | -93.13016 | 44924 ft | 568 kts | 67° |
| 2026-04-27 01:51 | 29.48169 | -93.04371 | 44923 ft | 568 kts | 67° |
| 2026-04-27 01:51 | 29.50535 | -92.95723 | 44922 ft | 568 kts | 67° |
| 2026-04-27 01:52 | 29.52895 | -92.87070 | 44922 ft | 568 kts | 67° |
| 2026-04-27 01:52 | 29.54075 | -92.82733 | 44465 ft | 568 kts | 67° |
| 2026-04-27 01:52 | 29.55231 | -92.78476 | 43706 ft | 563 kts | 67° |
| 2026-04-27 01:52 | 29.56390 | -92.74199 | 42967 ft | 558 kts | 67° |
| 2026-04-27 01:53 | 29.57541 | -92.69957 | 42236 ft | 554 kts | 67° |
| 2026-04-27 01:53 | 29.58682 | -92.65748 | 41519 ft | 551 kts | 67° |
| 2026-04-27 01:53 | 29.59816 | -92.61552 | 40796 ft | 549 kts | 66° |
| 2026-04-27 01:53 | 29.60947 | -92.57363 | 40076 ft | 550 kts | 66° |
| 2026-04-27 01:54 | 29.62082 | -92.53156 | 39356 ft | 553 kts | 66° |
| 2026-04-27 01:54 | 29.63223 | -92.48923 | 38628 ft | 556 kts | 66° |
| 2026-04-27 01:54 | 29.64362 | -92.44676 | 37838 ft | 556 kts | 67° |
| 2026-04-27 01:54 | 29.65453 | -92.40479 | 37113 ft | 556 kts | 70° |
| 2026-04-27 01:55 | 29.66153 | -92.36077 | 36384 ft | 563 kts | 78° |
| 2026-04-27 01:55 | 29.66367 | -92.31560 | 35643 ft | 569 kts | 86° |
| 2026-04-27 01:55 | 29.66379 | -92.27013 | 34897 ft | 568 kts | 86° |
| 2026-04-27 01:55 | 29.66410 | -92.22481 | 34148 ft | 565 kts | 85° |
| 2026-04-27 01:56 | 29.66456 | -92.13547 | 32632 ft | 551 kts | 86° |
| 2026-04-27 01:56 | 29.66472 | -92.09178 | 31912 ft | 543 kts | 86° |
| 2026-04-27 01:56 | 29.66494 | -92.04863 | 31204 ft | 536 kts | 86° |
| 2026-04-27 01:57 | 29.66512 | -92.00669 | 30516 ft | 529 kts | 87° |
| 2026-04-27 01:57 | 29.66525 | -91.96462 | 29786 ft | 523 kts | 87° |
| 2026-04-27 01:57 | 29.66538 | -91.92313 | 29093 ft | 515 kts | 87° |
| 2026-04-27 01:57 | 29.66551 | -91.88232 | 28417 ft | 507 kts | 87° |
| 2026-04-27 01:58 | 29.66562 | -91.84212 | 27760 ft | 499 kts | 87° |
| 2026-04-27 01:58 | 29.66572 | -91.80244 | 27107 ft | 493 kts | 87° |
| 2026-04-27 01:58 | 29.66579 | -91.76330 | 26467 ft | 487 kts | 87° |
| 2026-04-27 01:58 | 29.66586 | -91.72508 | 25831 ft | 482 kts | 87° |
| 2026-04-27 01:59 | 29.66593 | -91.68674 | 25209 ft | 477 kts | 87° |
| 2026-04-27 01:59 | 29.66596 | -91.64879 | 24590 ft | 473 kts | 87° |
| 2026-04-27 01:59 | 29.66601 | -91.61119 | 23973 ft | 468 kts | 87° |
| 2026-04-27 01:59 | 29.66603 | -91.57388 | 23332 ft | 465 kts | 87° |
| 2026-04-27 02:00 | 29.66604 | -91.53698 | 22702 ft | 458 kts | 87° |
| 2026-04-27 02:00 | 29.66605 | -91.50055 | 22111 ft | 453 kts | 87° |
| 2026-04-27 02:00 | 29.66603 | -91.46457 | 21520 ft | 448 kts | 87° |
| 2026-04-27 02:00 | 29.66603 | -91.42898 | 20938 ft | 443 kts | 87° |
| 2026-04-27 02:01 | 29.66600 | -91.39369 | 20357 ft | 439 kts | 87° |
| 2026-04-27 02:01 | 29.66597 | -91.35919 | 19789 ft | 436 kts | 87° |
| 2026-04-27 02:01 | 29.66593 | -91.32445 | 19218 ft | 433 kts | 87° |
| 2026-04-27 02:01 | 29.66588 | -91.28992 | 18649 ft | 430 kts | 87° |
| 2026-04-27 02:02 | 29.66583 | -91.25566 | 18057 ft | 427 kts | 87° |
| 2026-04-27 02:02 | 29.66574 | -91.22179 | 17473 ft | 420 kts | 87° |
| 2026-04-27 02:02 | 29.66567 | -91.18848 | 16925 ft | 414 kts | 87° |
| 2026-04-27 02:02 | 29.66664 | -91.15572 | 16366 ft | 405 kts | 78° |
| 2026-04-27 02:03 | 29.67128 | -91.13523 | 16027 ft | 396 kts | 65° |
| 2026-04-27 02:03 | 29.68381 | -91.10762 | 15538 ft | 386 kts | 54° |
| 2026-04-27 02:03 | 29.70336 | -91.07422 | 14913 ft | 373 kts | 51° |
| 2026-04-27 02:03 | 29.71833 | -91.05025 | 14440 ft | 366 kts | 50° |
| 2026-04-27 02:04 | 29.73327 | -91.02684 | 14068 ft | 359 kts | 49° |
| 2026-04-27 02:04 | 29.74804 | -91.00394 | 13721 ft | 354 kts | 49° |
| 2026-04-27 02:04 | 29.75779 | -90.98893 | 13468 ft | 352 kts | 49° |
| 2026-04-27 02:04 | 29.77240 | -90.96653 | 13194 ft | 347 kts | 49° |
| 2026-04-27 02:05 | 29.78687 | -90.94448 | 12938 ft | 344 kts | 49° |
| 2026-04-27 02:05 | 29.80128 | -90.92260 | 12680 ft | 342 kts | 49° |
| 2026-04-27 02:05 | 29.82040 | -90.89379 | 12354 ft | 342 kts | 49° |
| 2026-04-27 02:05 | 29.83488 | -90.87210 | 12111 ft | 342 kts | 49° |
| 2026-04-27 02:06 | 29.84942 | -90.85043 | 11866 ft | 342 kts | 49° |
| 2026-04-27 02:06 | 29.85908 | -90.83610 | 11713 ft | 342 kts | 49° |
| 2026-04-27 02:06 | 29.87371 | -90.81449 | 11478 ft | 342 kts | 49° |
| 2026-04-27 02:06 | 29.88837 | -90.79292 | 11236 ft | 342 kts | 49° |
| 2026-04-27 02:07 | 29.90306 | -90.77144 | 11013 ft | 341 kts | 49° |
| 2026-04-27 02:07 | 29.91765 | -90.75020 | 10988 ft | 335 kts | 49° |
| 2026-04-27 02:07 | 29.93214 | -90.72916 | 10989 ft | 337 kts | 49° |
| 2026-04-27 02:07 | 29.94675 | -90.70797 | 10991 ft | 337 kts | 49° |
| 2026-04-27 02:08 | 29.96124 | -90.68698 | 10993 ft | 328 kts | 49° |
| 2026-04-27 02:08 | 29.97522 | -90.66663 | 10986 ft | 320 kts | 49° |
| 2026-04-27 02:08 | 29.98876 | -90.64694 | 10985 ft | 316 kts | 49° |
| 2026-04-27 02:08 | 30.00238 | -90.62711 | 10981 ft | 315 kts | 49° |
| 2026-04-27 02:09 | 30.01599 | -90.60728 | 10984 ft | 316 kts | 49° |
| 2026-04-27 02:09 | 30.02964 | -90.58735 | 10984 ft | 317 kts | 49° |
| 2026-04-27 02:09 | 30.04335 | -90.56741 | 10985 ft | 318 kts | 49° |
| 2026-04-27 02:09 | 30.05708 | -90.54743 | 10984 ft | 318 kts | 49° |
| 2026-04-27 02:10 | 30.07082 | -90.52746 | 10985 ft | 318 kts | 49° |
| 2026-04-27 02:10 | 30.08458 | -90.50749 | 10987 ft | 318 kts | 49° |
| 2026-04-27 02:10 | 30.09835 | -90.48751 | 10988 ft | 318 kts | 49° |
| 2026-04-27 02:10 | 30.11197 | -90.46777 | 10879 ft | 318 kts | 49° |
| 2026-04-27 02:11 | 30.12552 | -90.44813 | 10582 ft | 309 kts | 49° |
| 2026-04-27 02:11 | 30.13892 | -90.42882 | 10227 ft | 308 kts | 49° |
| 2026-04-27 02:11 | 30.15238 | -90.40960 | 9878 ft | 307 kts | 49° |
| 2026-04-27 02:11 | 30.16586 | -90.39052 | 9499 ft | 306 kts | 49° |
| 2026-04-27 02:12 | 30.17932 | -90.37161 | 9115 ft | 304 kts | 49° |
| 2026-04-27 02:12 | 30.19271 | -90.35283 | 8735 ft | 301 kts | 49° |
| 2026-04-27 02:12 | 30.20592 | -90.33435 | 8362 ft | 295 kts | 49° |
| 2026-04-27 02:12 | 30.21890 | -90.31624 | 7989 ft | 290 kts | 49° |
| 2026-04-27 02:13 | 30.23151 | -90.29873 | 7629 ft | 285 kts | 49° |
| 2026-04-27 02:13 | 30.24407 | -90.28127 | 7265 ft | 280 kts | 49° |
| 2026-04-27 02:13 | 30.25649 | -90.26410 | 6908 ft | 276 kts | 49° |
| 2026-04-27 02:13 | 30.26875 | -90.24718 | 6557 ft | 273 kts | 49° |
| 2026-04-27 02:14 | 30.28089 | -90.23039 | 6188 ft | 270 kts | 51° |
| 2026-04-27 02:14 | 30.28866 | -90.21103 | 5779 ft | 265 kts | 78° |
| 2026-04-27 02:14 | 30.29035 | -90.19015 | 5427 ft | 257 kts | 88° |
| 2026-04-27 02:14 | 30.29131 | -90.16971 | 5066 ft | 249 kts | 88° |
| 2026-04-27 02:15 | 30.29224 | -90.15073 | 4681 ft | 227 kts | 88° |
| 2026-04-27 02:15 | 30.29314 | -90.13295 | 4420 ft | 222 kts | 88° |
| 2026-04-27 02:15 | 30.29405 | -90.11529 | 4157 ft | 218 kts | 88° |
| 2026-04-27 02:15 | 30.29500 | -90.09798 | 3916 ft | 213 kts | 88° |
| 2026-04-27 02:16 | 30.29594 | -90.08123 | 3643 ft | 203 kts | 89° |
| 2026-04-27 02:16 | 30.29687 | -90.06516 | 3386 ft | 198 kts | 89° |
| 2026-04-27 02:16 | 30.29461 | -90.04993 | 3097 ft | 190 kts | 122° |
| 2026-04-27 02:16 | 30.28502 | -90.04088 | 3020 ft | 177 kts | 161° |
| 2026-04-27 02:17 | 30.27341 | -90.03625 | 2952 ft | 177 kts | 161° |
| 2026-04-27 02:17 | 30.26145 | -90.03332 | 2834 ft | 176 kts | 179° |
| 2026-04-27 02:17 | 30.24941 | -90.03300 | 2730 ft | 175 kts | 179° |
| 2026-04-27 02:17 | 30.23721 | -90.03250 | 2631 ft | 175 kts | 180° |
| 2026-04-27 02:18 | 30.22511 | -90.03251 | 2520 ft | 174 kts | 180° |
| 2026-04-27 02:18 | 30.21302 | -90.03220 | 2399 ft | 173 kts | 179° |
| 2026-04-27 02:18 | 30.20103 | -90.03215 | 2294 ft | 172 kts | 180° |
| 2026-04-27 02:18 | 30.18907 | -90.03189 | 2175 ft | 171 kts | 179° |
| 2026-04-27 02:19 | 30.17747 | -90.03177 | 2088 ft | 163 kts | 180° |
| 2026-04-27 02:19 | 30.16615 | -90.03158 | 1973 ft | 162 kts | 178° |
| 2026-04-27 02:19 | 30.15507 | -90.03143 | 1855 ft | 160 kts | 180° |
| 2026-04-27 02:19 | 30.14426 | -90.03127 | 1752 ft | 149 kts | 178° |
| 2026-04-27 02:20 | 30.13427 | -90.03110 | 1600 ft | 145 kts | 180° |
| 2026-04-27 02:20 | 30.12414 | -90.03099 | 1403 ft | 142 kts | 178° |
| 2026-04-27 02:20 | 30.11452 | -90.03080 | 1229 ft | 138 kts | 179° |
| 2026-04-27 02:20 | 30.10499 | -90.03070 | 1047 ft | 138 kts | 177° |
| 2026-04-27 02:21 | 30.09559 | -90.03054 | 890 ft | 133 kts | 179° |
| 2026-04-27 02:21 | 30.08632 | -90.03044 | 702 ft | 133 kts | 178° |
| 2026-04-27 02:21 | 30.07719 | -90.03021 | 573 ft | 130 kts | 178° |
| 2026-04-27 02:21 | 30.06822 | -90.03011 | 385 ft | 130 kts | 178° |
| 2026-04-27 02:22 | 30.05925 | -90.03000 | 212 ft | 127 kts | 180° |
| 2026-04-27 02:22 | 30.05072 | -90.02984 | 24 ft | 118 kts | 179° |
| 2026-04-27 02:22 | 30.04366 | -90.02978 | 11 ft | 82 kts | 179° |
| 2026-04-27 02:22 | 30.03917 | -90.02972 | 9 ft | 45 kts | 179° |
| 2026-04-27 02:23 | 30.03691 | -90.02969 | 8 ft | 29 kts | 179° |
| 2026-04-27 02:23 | 30.03583 | -90.02935 | 8 ft | 13 kts | 106° |
| 2026-04-27 02:23 | 30.03583 | -90.02831 | 9 ft | 13 kts | 89° |
| 2026-04-27 02:23 | 30.03559 | -90.02737 | 9 ft | 9 kts | 134° |
| 2026-04-27 02:24 | 30.03515 | -90.02732 | 9 ft | 7 kts | 222° |
| 2026-04-27 02:24 | 30.03490 | -90.02763 | 9 ft | 0 kts | 227° |